sensor_id;sensor_type;location;lat;lon;timestamp;pressure;altitude;pressure_sealevel;temperature;humidity
69187;BME280;56301;56.864;60.554;2023-07-29T00:01:21;98004.00;;;24.82;52.84
69187;BME280;56301;56.864;60.554;2023-07-29T00:03:44;98000.47;;;24.82;52.27
69187;BME280;56301;56.864;60.554;2023-07-29T00:06:06;98002.34;;;24.81;52.24
69187;BME280;56301;56.864;60.554;2023-07-29T00:08:28;98005.88;;;24.82;52.40
69187;BME280;56301;56.864;60.554;2023-07-29T00:10:51;98003.19;;;24.82;52.10
69187;BME280;56301;56.864;60.554;2023-07-29T00:13:13;98014.22;;;24.80;52.83
69187;BME280;56301;56.864;60.554;2023-07-29T00:15:36;98020.47;;;24.81;52.00
69187;BME280;56301;56.864;60.554;2023-07-29T00:17:58;98021.28;;;24.81;51.93
69187;BME280;56301;56.864;60.554;2023-07-29T00:20:21;98023.34;;;24.79;52.59
69187;BME280;56301;56.864;60.554;2023-07-29T00:22:43;98029.19;;;24.83;52.15
69187;BME280;56301;56.864;60.554;2023-07-29T00:25:07;98023.16;;;24.81;51.99
69187;BME280;56301;56.864;60.554;2023-07-29T00:27:29;98016.06;;;24.80;52.66
69187;BME280;56301;56.864;60.554;2023-07-29T00:29:52;98016.94;;;24.80;52.23
69187;BME280;56301;56.864;60.554;2023-07-29T00:32:14;98016.06;;;24.80;52.11
69187;BME280;56301;56.864;60.554;2023-07-29T00:34:37;98033.16;;;24.80;52.04
69187;BME280;56301;56.864;60.554;2023-07-29T00:36:59;98025.22;;;24.79;51.85
69187;BME280;56301;56.864;60.554;2023-07-29T00:39:22;98029.59;;;24.80;52.89
69187;BME280;56301;56.864;60.554;2023-07-29T00:41:44;98026.88;;;24.80;52.01
69187;BME280;56301;56.864;60.554;2023-07-29T00:44:07;98027.75;;;24.80;52.30
69187;BME280;56301;56.864;60.554;2023-07-29T00:46:29;98036.88;;;24.79;52.20
69187;BME280;56301;56.864;60.554;2023-07-29T00:48:53;98035.66;;;24.82;52.17
69187;BME280;56301;56.864;60.554;2023-07-29T00:51:15;98041.28;;;24.80;52.38
69187;BME280;56301;56.864;60.554;2023-07-29T00:53:38;98048.53;;;24.80;52.15
69187;BME280;56301;56.864;60.554;2023-07-29T00:56:00;98048.53;;;24.80;52.44
69187;BME280;56301;56.864;60.554;2023-07-29T00:58:23;98049.41;;;24.80;52.45
69187;BME280;56301;56.864;60.554;2023-07-29T01:00:45;98052.94;;;24.81;52.18
69187;BME280;56301;56.864;60.554;2023-07-29T01:03:08;98043.13;;;24.80;52.26
69187;BME280;56301;56.864;60.554;2023-07-29T01:05:32;98046.88;;;24.79;52.42
69187;BME280;56301;56.864;60.554;2023-07-29T01:07:59;98056.66;;;24.80;52.76
69187;BME280;56301;56.864;60.554;2023-07-29T01:10:27;98049.56;;;24.79;52.16
69187;BME280;56301;56.864;60.554;2023-07-29T01:12:58;98047.53;;;24.81;52.39
69187;BME280;56301;56.864;60.554;2023-07-29T01:15:25;98056.66;;;24.80;52.23
69187;BME280;56301;56.864;60.554;2023-07-29T01:17:59;98053.13;;;24.79;52.24
69187;BME280;56301;56.864;60.554;2023-07-29T01:20:24;98056.03;;;24.78;52.17
69187;BME280;56301;56.864;60.554;2023-07-29T01:22:47;98057.50;;;24.80;52.86
69187;BME280;56301;56.864;60.554;2023-07-29T01:25:10;98059.34;;;24.80;52.63
69187;BME280;56301;56.864;60.554;2023-07-29T01:27:32;98065.81;;;24.79;52.90
69187;BME280;56301;56.864;60.554;2023-07-29T01:29:56;98062.06;;;24.80;52.63
69187;BME280;56301;56.864;60.554;2023-07-29T01:35:15;98064.75;;;24.80;52.15
69187;BME280;56301;56.864;60.554;2023-07-29T01:37:41;98072.88;;;24.80;52.53
69187;BME280;56301;56.864;60.554;2023-07-29T01:40:06;98076.44;;;24.80;52.35
69187;BME280;56301;56.864;60.554;2023-07-29T01:42:30;98082.69;;;24.81;52.60
69187;BME280;56301;56.864;60.554;2023-07-29T01:44:53;98083.72;;;24.80;52.29
69187;BME280;56301;56.864;60.554;2023-07-29T01:47:16;98090.81;;;24.81;52.16
69187;BME280;56301;56.864;60.554;2023-07-29T01:49:38;98093.50;;;24.81;52.70
69187;BME280;56301;56.864;60.554;2023-07-29T01:52:01;98092.47;;;24.82;52.44
69187;BME280;56301;56.864;60.554;2023-07-29T01:54:23;98098.94;;;24.81;52.68
69187;BME280;56301;56.864;60.554;2023-07-29T01:56:46;98108.06;;;24.80;51.85
69187;BME280;56301;56.864;60.554;2023-07-29T01:59:09;98114.13;;;24.82;52.59
69187;BME280;56301;56.864;60.554;2023-07-29T02:01:31;98114.13;;;24.82;52.07
69187;BME280;56301;56.864;60.554;2023-07-29T02:03:54;98126.81;;;24.81;51.92
69187;BME280;56301;56.864;60.554;2023-07-29T02:06:16;98126.00;;;24.81;52.81
69187;BME280;56301;56.864;60.554;2023-07-29T02:08:39;98127.00;;;24.80;52.19
69187;BME280;56301;56.864;60.554;2023-07-29T02:11:01;98135.75;;;24.82;51.89
69187;BME280;56301;56.864;60.554;2023-07-29T02:13:24;98140.34;;;24.81;51.99
69187;BME280;56301;56.864;60.554;2023-07-29T02:15:46;98136.81;;;24.81;51.99
69187;BME280;56301;56.864;60.554;2023-07-29T02:18:09;98140.53;;;24.80;52.70
69187;BME280;56301;56.864;60.554;2023-07-29T02:20:31;98146.81;;;24.80;51.99
69187;BME280;56301;56.864;60.554;2023-07-29T02:22:54;98143.06;;;24.81;52.38
69187;BME280;56301;56.864;60.554;2023-07-29T02:25:16;98142.84;;;24.83;51.95
69187;BME280;56301;56.864;60.554;2023-07-29T02:27:38;98141.38;;;24.80;52.13
69187;BME280;56301;56.864;60.554;2023-07-29T02:30:01;98142.22;;;24.81;52.83
69187;BME280;56301;56.864;60.554;2023-07-29T02:32:24;98139.50;;;24.81;52.13
69187;BME280;56301;56.864;60.554;2023-07-29T02:34:46;98140.53;;;24.80;52.33
69187;BME280;56301;56.864;60.554;2023-07-29T02:37:09;98134.28;;;24.79;51.76
69187;BME280;56301;56.864;60.554;2023-07-29T02:39:31;98136.81;;;24.81;51.80
69187;BME280;56301;56.864;60.554;2023-07-29T02:41:54;98143.88;;;24.82;52.53
69187;BME280;56301;56.864;60.554;2023-07-29T02:44:16;98143.88;;;24.82;51.80
69187;BME280;56301;56.864;60.554;2023-07-29T02:46:39;98147.63;;;24.81;52.43
69187;BME280;56301;56.864;60.554;2023-07-29T02:49:02;98159.28;;;24.81;52.08
69187;BME280;56301;56.864;60.554;2023-07-29T02:51:24;98158.44;;;24.81;52.31
69187;BME280;56301;56.864;60.554;2023-07-29T02:53:47;98153.03;;;24.81;52.18
69187;BME280;56301;56.864;60.554;2023-07-29T02:56:10;98156.19;;;24.84;52.18
69187;BME280;56301;56.864;60.554;2023-07-29T02:58:32;98156.38;;;24.83;51.85
69187;BME280;56301;56.864;60.554;2023-07-29T03:01:04;98158.06;;;24.84;52.18
69187;BME280;56301;56.864;60.554;2023-07-29T03:03:27;98156.38;;;24.83;52.47
69187;BME280;56301;56.864;60.554;2023-07-29T03:05:50;98152.81;;;24.82;52.15
69187;BME280;56301;56.864;60.554;2023-07-29T03:08:19;98146.59;;;24.82;51.77
69187;BME280;56301;56.864;60.554;2023-07-29T03:10:42;98152.81;;;24.82;51.75
69187;BME280;56301;56.864;60.554;2023-07-29T03:13:04;98159.72;;;24.85;51.43
69187;BME280;56301;56.864;60.554;2023-07-29T03:15:27;98155.53;;;24.82;52.62
69187;BME280;56301;56.864;60.554;2023-07-29T03:17:49;98154.50;;;24.83;52.17
69187;BME280;56301;56.864;60.554;2023-07-29T03:20:12;98158.06;;;24.84;52.08
69187;BME280;56301;56.864;60.554;2023-07-29T03:22:34;98147.25;;;24.84;52.68
69187;BME280;56301;56.864;60.554;2023-07-29T03:24:57;98145.38;;;24.84;52.55
69187;BME280;56301;56.864;60.554;2023-07-29T03:27:19;98145.16;;;24.86;51.88
69187;BME280;56301;56.864;60.554;2023-07-29T03:29:42;98138.50;;;24.88;51.66
69187;BME280;56301;56.864;60.554;2023-07-29T03:32:05;98148.50;;;24.88;51.99
69187;BME280;56301;56.864;60.554;2023-07-29T03:34:27;98143.28;;;24.86;52.61
69187;BME280;56301;56.864;60.554;2023-07-29T03:36:50;98153.06;;;24.87;51.90
69187;BME280;56301;56.864;60.554;2023-07-29T03:39:12;98154.94;;;24.87;52.07
69187;BME280;56301;56.864;60.554;2023-07-29T03:41:34;98150.16;;;24.89;51.85
69187;BME280;56301;56.864;60.554;2023-07-29T03:43:57;98137.69;;;24.88;51.92
69187;BME280;56301;56.864;60.554;2023-07-29T03:46:19;98150.16;;;24.89;52.67
69187;BME280;56301;56.864;60.554;2023-07-29T03:48:42;98152.66;;;24.90;52.30
69187;BME280;56301;56.864;60.554;2023-07-29T03:51:06;98159.94;;;24.90;52.05
69187;BME280;56301;56.864;60.554;2023-07-29T03:53:28;98160.59;;;24.92;52.19
69187;BME280;56301;56.864;60.554;2023-07-29T03:55:51;98166.84;;;24.92;51.90
69187;BME280;56301;56.864;60.554;2023-07-29T03:58:13;98166.00;;;24.92;52.55
69187;BME280;56301;56.864;60.554;2023-07-29T04:00:35;98161.44;;;24.92;51.97
69187;BME280;56301;56.864;60.554;2023-07-29T04:02:58;98163.94;;;24.94;52.06
69187;BME280;56301;56.864;60.554;2023-07-29T04:05:20;98162.25;;;24.93;51.78
69187;BME280;56301;56.864;60.554;2023-07-29T04:07:44;98166.84;;;24.92;51.92
69187;BME280;56301;56.864;60.554;2023-07-29T04:10:06;98160.38;;;24.93;51.89
69187;BME280;56301;56.864;60.554;2023-07-29T04:12:30;98162.91;;;24.95;52.53
69187;BME280;56301;56.864;60.554;2023-07-29T04:14:52;98162.91;;;24.95;51.98
69187;BME280;56301;56.864;60.554;2023-07-29T04:17:15;98178.28;;;24.94;52.59
69187;BME280;56301;56.864;60.554;2023-07-29T04:19:38;98171.66;;;24.97;52.13
69187;BME280;56301;56.864;60.554;2023-07-29T04:22:00;98168.94;;;24.97;51.96
69187;BME280;56301;56.864;60.554;2023-07-29T04:24:22;98170.59;;;24.98;52.63
69187;BME280;56301;56.864;60.554;2023-07-29T04:26:45;98165.19;;;24.98;52.22
69187;BME280;56301;56.864;60.554;2023-07-29T04:29:08;98152.53;;;24.98;52.37
69187;BME280;56301;56.864;60.554;2023-07-29T04:31:30;98154.19;;;25.00;51.95
69187;BME280;56301;56.864;60.554;2023-07-29T04:33:53;98153.97;;;25.01;51.86
69187;BME280;56301;56.864;60.554;2023-07-29T04:36:15;98156.50;;;25.03;52.03
69187;BME280;56301;56.864;60.554;2023-07-29T04:38:40;98151.06;;;25.03;52.46
69187;BME280;56301;56.864;60.554;2023-07-29T04:41:03;98146.28;;;25.05;52.54
69187;BME280;56301;56.864;60.554;2023-07-29T04:43:26;98151.31;;;25.08;52.65
69187;BME280;56301;56.864;60.554;2023-07-29T04:45:49;98155.66;;;25.09;51.60
69187;BME280;56301;56.864;60.554;2023-07-29T04:48:11;98156.34;;;25.11;52.49
69187;BME280;56301;56.864;60.554;2023-07-29T04:50:33;98152.81;;;25.10;52.11
69187;BME280;56301;56.864;60.554;2023-07-29T04:52:56;98156.13;;;25.12;51.90
69187;BME280;56301;56.864;60.554;2023-07-29T04:55:18;98162.41;;;25.13;52.35
69187;BME280;56301;56.864;60.554;2023-07-29T04:57:41;98162.84;;;25.16;52.41
69187;BME280;56301;56.864;60.554;2023-07-29T05:00:05;98168.66;;;25.20;51.90
69187;BME280;56301;56.864;60.554;2023-07-29T05:02:28;98172.28;;;24.64;51.67
69187;BME280;56301;56.864;60.554;2023-07-29T05:04:51;98167.19;;;24.05;51.98
69187;BME280;56301;56.864;60.554;2023-07-29T05:07:13;98167.78;;;24.00;51.91
69187;BME280;56301;56.864;60.554;2023-07-29T05:09:36;98157.91;;;24.14;53.69
69187;BME280;56301;56.864;60.554;2023-07-29T05:11:59;98163.75;;;24.18;54.02
69187;BME280;56301;56.864;60.554;2023-07-29T05:14:21;98168.72;;;24.14;54.28
69187;BME280;56301;56.864;60.554;2023-07-29T05:16:44;98159.53;;;23.87;53.26
69187;BME280;56301;56.864;60.554;2023-07-29T05:19:06;98165.25;;;23.77;53.22
69187;BME280;56301;56.864;60.554;2023-07-29T05:21:29;98165.78;;;23.88;53.13
69187;BME280;56301;56.864;60.554;2023-07-29T05:23:51;98153.00;;;24.24;54.34
69187;BME280;56301;56.864;60.554;2023-07-29T05:26:14;98161.63;;;24.35;55.52
69187;BME280;56301;56.864;60.554;2023-07-29T05:28:36;98158.41;;;24.46;55.85
69187;BME280;56301;56.864;60.554;2023-07-29T05:31:00;98169.91;;;24.55;56.20
69187;BME280;56301;56.864;60.554;2023-07-29T05:33:23;98167.91;;;24.63;55.80
69187;BME280;56301;56.864;60.554;2023-07-29T05:35:45;98152.59;;;24.77;54.41
69187;BME280;56301;56.864;60.554;2023-07-29T05:38:08;98151.88;;;24.96;53.21
69187;BME280;56301;56.864;60.554;2023-07-29T05:40:31;98154.84;;;25.08;52.31
69187;BME280;56301;56.864;60.554;2023-07-29T05:42:53;98155.00;;;24.65;53.06
69187;BME280;56301;56.864;60.554;2023-07-29T05:45:16;98152.84;;;24.05;52.67
69187;BME280;56301;56.864;60.554;2023-07-29T05:47:38;98143.00;;;23.75;52.13
69187;BME280;56301;56.864;60.554;2023-07-29T05:50:00;98153.25;;;23.65;51.66
69187;BME280;56301;56.864;60.554;2023-07-29T05:52:23;98149.19;;;23.91;53.14
69187;BME280;56301;56.864;60.554;2023-07-29T05:54:45;98143.25;;;24.02;53.74
69187;BME280;56301;56.864;60.554;2023-07-29T05:57:11;98141.66;;;24.08;54.22
69187;BME280;56301;56.864;60.554;2023-07-29T05:59:34;98148.34;;;24.12;54.81
69187;BME280;56301;56.864;60.554;2023-07-29T06:01:56;98151.59;;;24.07;55.03
69187;BME280;56301;56.864;60.554;2023-07-29T06:04:19;98159.97;;;24.12;54.55
69187;BME280;56301;56.864;60.554;2023-07-29T06:06:41;98169.59;;;24.15;54.84
69187;BME280;56301;56.864;60.554;2023-07-29T06:09:04;98159.59;;;24.15;54.37
69187;BME280;56301;56.864;60.554;2023-07-29T06:11:26;98149.78;;;24.14;54.39
69187;BME280;56301;56.864;60.554;2023-07-29T06:13:49;98160.81;;;24.13;54.84
69187;BME280;56301;56.864;60.554;2023-07-29T06:16:12;98160.81;;;24.13;55.08
69187;BME280;56301;56.864;60.554;2023-07-29T06:18:35;98148.78;;;24.15;55.39
69187;BME280;56301;56.864;60.554;2023-07-29T06:20:57;98161.03;;;24.11;54.69
69187;BME280;56301;56.864;60.554;2023-07-29T06:23:20;98154.38;;;24.14;55.08
69187;BME280;56301;56.864;60.554;2023-07-29T06:25:42;98154.88;;;24.24;55.15
69187;BME280;56301;56.864;60.554;2023-07-29T06:28:05;98154.66;;;24.25;54.83
69187;BME280;56301;56.864;60.554;2023-07-29T06:30:27;98151.41;;;24.30;54.85
69187;BME280;56301;56.864;60.554;2023-07-29T06:32:50;98155.56;;;24.33;55.17
69187;BME280;56301;56.864;60.554;2023-07-29T06:35:12;98157.25;;;24.34;54.99
69187;BME280;56301;56.864;60.554;2023-07-29T06:37:34;98151.47;;;24.37;54.91
69187;BME280;56301;56.864;60.554;2023-07-29T06:39:57;98160.19;;;24.39;55.01
69187;BME280;56301;56.864;60.554;2023-07-29T06:42:19;98161.88;;;24.40;55.11
69187;BME280;56301;56.864;60.554;2023-07-29T06:44:42;98157.34;;;24.40;55.33
69187;BME280;56301;56.864;60.554;2023-07-29T06:47:04;98154.88;;;24.45;55.03
69187;BME280;56301;56.864;60.554;2023-07-29T06:49:27;98156.09;;;24.43;55.41
69187;BME280;56301;56.864;60.554;2023-07-29T06:51:49;98153.78;;;24.40;55.52
69187;BME280;56301;56.864;60.554;2023-07-29T06:54:12;98162.75;;;24.40;55.00
69187;BME280;56301;56.864;60.554;2023-07-29T06:56:35;98154.03;;;24.45;54.79
69187;BME280;56301;56.864;60.554;2023-07-29T06:58:57;98156.53;;;24.46;54.72
69187;BME280;56301;56.864;60.554;2023-07-29T07:01:20;98157.19;;;24.48;55.01
69187;BME280;56301;56.864;60.554;2023-07-29T07:03:43;98170.72;;;24.48;55.03
69187;BME280;56301;56.864;60.554;2023-07-29T07:06:06;98165.94;;;24.50;54.75
69187;BME280;56301;56.864;60.554;2023-07-29T07:08:28;98167.41;;;24.53;54.90
69187;BME280;56301;56.864;60.554;2023-07-29T07:10:51;98162.66;;;24.55;54.75
69187;BME280;56301;56.864;60.554;2023-07-29T07:13:13;98160.56;;;24.57;54.12
69187;BME280;56301;56.864;60.554;2023-07-29T07:15:35;98165.81;;;24.59;54.43
69187;BME280;56301;56.864;60.554;2023-07-29T07:17:58;98168.69;;;24.57;54.11
69187;BME280;56301;56.864;60.554;2023-07-29T07:20:20;98169.34;;;24.59;54.63
69187;BME280;56301;56.864;60.554;2023-07-29T07:22:43;98168.19;;;24.47;54.63
69187;BME280;56301;56.864;60.554;2023-07-29T07:25:05;98159.91;;;24.48;54.89
69187;BME280;56301;56.864;60.554;2023-07-29T07:27:28;98159.91;;;24.48;54.42
69187;BME280;56301;56.864;60.554;2023-07-29T07:29:50;98161.13;;;24.46;54.85
69187;BME280;56301;56.864;60.554;2023-07-29T07:32:13;98152.81;;;24.47;54.05
69187;BME280;56301;56.864;60.554;2023-07-29T07:34:35;98155.31;;;24.49;54.35
69187;BME280;56301;56.864;60.554;2023-07-29T07:36:58;98155.72;;;24.46;54.23
69187;BME280;56301;56.864;60.554;2023-07-29T07:39:20;98152.78;;;24.41;54.11
69187;BME280;56301;56.864;60.554;2023-07-29T07:41:42;98151.97;;;24.25;53.82
69187;BME280;56301;56.864;60.554;2023-07-29T07:44:05;98154.81;;;24.17;53.14
69187;BME280;56301;56.864;60.554;2023-07-29T07:46:28;98151.59;;;24.07;53.05
69187;BME280;56301;56.864;60.554;2023-07-29T07:48:50;98152.41;;;24.01;52.36
69187;BME280;56301;56.864;60.554;2023-07-29T07:51:13;98147.09;;;23.93;51.55
69187;BME280;56301;56.864;60.554;2023-07-29T07:53:35;98146.25;;;23.86;51.12
69187;BME280;56301;56.864;60.554;2023-07-29T07:55:58;98145.97;;;23.81;50.96
69187;BME280;56301;56.864;60.554;2023-07-29T07:58:20;98157.81;;;23.80;50.27
69187;BME280;56301;56.864;60.554;2023-07-29T08:00:43;98140.75;;;23.79;50.22
69187;BME280;56301;56.864;60.554;2023-07-29T08:03:05;98143.47;;;23.79;49.82
69187;BME280;56301;56.864;60.554;2023-07-29T08:05:27;98145.50;;;23.77;49.33
69187;BME280;56301;56.864;60.554;2023-07-29T08:07:50;98149.03;;;23.77;49.31
69187;BME280;56301;56.864;60.554;2023-07-29T08:10:12;98145.50;;;23.77;48.66
69187;BME280;56301;56.864;60.554;2023-07-29T08:12:35;98141.38;;;23.81;48.55
69187;BME280;56301;56.864;60.554;2023-07-29T08:14:57;98136.19;;;23.80;48.31
69187;BME280;56301;56.864;60.554;2023-07-29T08:17:20;98135.53;;;23.77;48.21
69187;BME280;56301;56.864;60.554;2023-07-29T08:19:42;98133.88;;;23.76;47.65
69187;BME280;56301;56.864;60.554;2023-07-29T08:22:04;98139.66;;;23.73;46.83
69187;BME280;56301;56.864;60.554;2023-07-29T08:24:27;98137.78;;;23.74;47.18
69187;BME280;56301;56.864;60.554;2023-07-29T08:26:50;98126.53;;;23.70;47.19
69187;BME280;56301;56.864;60.554;2023-07-29T08:29:12;98138.38;;;23.69;47.25
69187;BME280;56301;56.864;60.554;2023-07-29T08:31:35;98146.47;;;23.69;46.55
69187;BME280;56301;56.864;60.554;2023-07-29T08:33:57;98146.47;;;23.69;46.77
69187;BME280;56301;56.864;60.554;2023-07-29T08:36:20;98148.13;;;23.70;46.32
69187;BME280;56301;56.864;60.554;2023-07-29T08:38:43;98146.69;;;23.68;46.39
69187;BME280;56301;56.864;60.554;2023-07-29T08:43:38;98132.31;;;23.67;46.15
69187;BME280;56301;56.864;60.554;2023-07-29T08:46:01;98128.94;;;23.65;46.56
69187;BME280;56301;56.864;60.554;2023-07-29T08:48:28;98121.50;;;23.67;46.45
69187;BME280;56301;56.864;60.554;2023-07-29T08:50:51;98120.50;;;23.68;46.14
69187;BME280;56301;56.864;60.554;2023-07-29T08:53:14;98126.25;;;23.65;46.08
69187;BME280;56301;56.864;60.554;2023-07-29T08:55:37;98129.97;;;23.64;46.41
69187;BME280;56301;56.864;60.554;2023-07-29T08:58:00;98121.22;;;23.62;46.42
69187;BME280;56301;56.864;60.554;2023-07-29T09:00:22;98130.47;;;23.68;46.07
69187;BME280;56301;56.864;60.554;2023-07-29T09:02:45;98118.81;;;23.67;46.00
69187;BME280;56301;56.864;60.554;2023-07-29T09:05:07;98129.13;;;23.64;46.04
69187;BME280;56301;56.864;60.554;2023-07-29T09:07:30;98128.28;;;23.63;45.63
69187;BME280;56301;56.864;60.554;2023-07-29T09:09:53;98129.31;;;23.62;46.00
69187;BME280;56301;56.864;60.554;2023-07-29T09:12:15;98135.56;;;23.63;46.14
69187;BME280;56301;56.864;60.554;2023-07-29T09:14:38;98126.84;;;23.61;45.47
69187;BME280;56301;56.864;60.554;2023-07-29T09:17:00;98126.63;;;23.62;46.06
69187;BME280;56301;56.864;60.554;2023-07-29T09:19:25;98123.28;;;23.60;46.13
69187;BME280;56301;56.864;60.554;2023-07-29T09:21:47;98130.53;;;23.60;45.58
69187;BME280;56301;56.864;60.554;2023-07-29T09:24:10;98127.22;;;23.58;45.47
69187;BME280;56301;56.864;60.554;2023-07-29T09:26:32;98123.28;;;23.60;45.72
69187;BME280;56301;56.864;60.554;2023-07-29T09:28:56;98118.72;;;23.61;45.41
69187;BME280;56301;56.864;60.554;2023-07-29T09:31:19;98114.72;;;23.57;45.46
69187;BME280;56301;56.864;60.554;2023-07-29T09:33:42;98113.50;;;23.59;45.45
69187;BME280;56301;56.864;60.554;2023-07-29T09:36:08;98112.47;;;23.60;45.72
69187;BME280;56301;56.864;60.554;2023-07-29T09:38:31;98117.03;;;23.60;45.31
69187;BME280;56301;56.864;60.554;2023-07-29T09:40:56;98104.56;;;23.59;45.72
69187;BME280;56301;56.864;60.554;2023-07-29T09:43:19;98116.59;;;23.56;45.54
69187;BME280;56301;56.864;60.554;2023-07-29T09:45:46;98109.53;;;23.55;45.31
69187;BME280;56301;56.864;60.554;2023-07-29T09:48:09;98096.84;;;23.55;45.47
69187;BME280;56301;56.864;60.554;2023-07-29T09:50:31;98109.91;;;23.52;45.12
69187;BME280;56301;56.864;60.554;2023-07-29T09:52:54;98106.19;;;23.53;45.30
69187;BME280;56301;56.864;60.554;2023-07-29T09:55:26;98103.28;;;23.54;45.53
69187;BME280;56301;56.864;60.554;2023-07-29T09:57:58;98099.56;;;23.55;45.55
69187;BME280;56301;56.864;60.554;2023-07-29T10:00:21;98101.63;;;23.53;45.48
69187;BME280;56301;56.864;60.554;2023-07-29T10:02:44;98095.31;;;23.46;45.23
69187;BME280;56301;56.864;60.554;2023-07-29T10:05:07;98097.81;;;23.48;45.77
69187;BME280;56301;56.864;60.554;2023-07-29T10:07:29;98099.88;;;23.46;45.05
69187;BME280;56301;56.864;60.554;2023-07-29T10:09:52;98094.88;;;23.43;44.74
69187;BME280;56301;56.864;60.554;2023-07-29T10:12:15;98102.69;;;23.38;45.15
69187;BME280;56301;56.864;60.554;2023-07-29T10:14:38;98097.75;;;23.41;44.74
69187;BME280;56301;56.864;60.554;2023-07-29T10:17:00;98107.06;;;23.39;44.83
69187;BME280;56301;56.864;60.554;2023-07-29T10:19:25;98099.34;;;23.36;44.81
69187;BME280;56301;56.864;60.554;2023-07-29T10:21:47;98098.53;;;23.35;45.32
69187;BME280;56301;56.864;60.554;2023-07-29T10:24:11;98093.97;;;23.36;44.91
69187;BME280;56301;56.864;60.554;2023-07-29T10:26:37;98098.13;;;23.38;44.65
69187;BME280;56301;56.864;60.554;2023-07-29T10:29:01;98100.34;;;23.35;44.97
69187;BME280;56301;56.864;60.554;2023-07-29T10:31:25;98104.28;;;23.32;44.76
69187;BME280;56301;56.864;60.554;2023-07-29T10:33:47;98103.47;;;23.32;44.78
69187;BME280;56301;56.864;60.554;2023-07-29T10:36:11;98102.59;;;23.31;44.61
69187;BME280;56301;56.864;60.554;2023-07-29T10:38:34;98090.50;;;23.27;44.80
69187;BME280;56301;56.864;60.554;2023-07-29T10:40:57;98097.78;;;23.26;44.87
69187;BME280;56301;56.864;60.554;2023-07-29T10:43:41;98094.72;;;23.29;45.03
69187;BME280;56301;56.864;60.554;2023-07-29T10:46:21;98096.13;;;23.25;44.67
69187;BME280;56301;56.864;60.554;2023-07-29T10:48:44;98092.59;;;23.25;44.83
69187;BME280;56301;56.864;60.554;2023-07-29T10:53:44;98075.94;;;23.21;44.32
69187;BME280;56301;56.864;60.554;2023-07-29T10:56:07;98081.72;;;23.18;44.32
69187;BME280;56301;56.864;60.554;2023-07-29T10:58:29;98076.53;;;23.17;44.06
69187;BME280;56301;56.864;60.554;2023-07-29T11:00:52;98079.59;;;23.14;44.43
69187;BME280;56301;56.864;60.554;2023-07-29T11:03:14;98071.88;;;23.11;44.40
69187;BME280;56301;56.864;60.554;2023-07-29T11:05:44;98076.53;;;23.02;44.48
69187;BME280;56301;56.864;60.554;2023-07-29T11:08:20;98066.19;;;23.05;44.51
69187;BME280;56301;56.864;60.554;2023-07-29T11:10:43;98074.22;;;22.99;44.46
69187;BME280;56301;56.864;60.554;2023-07-29T11:13:06;98070.22;;;22.95;44.21
69187;BME280;56301;56.864;60.554;2023-07-29T11:15:28;98060.91;;;22.97;44.03
69187;BME280;56301;56.864;60.554;2023-07-29T11:17:55;98073.78;;;22.95;44.41
69187;BME280;56301;56.864;60.554;2023-07-29T11:20:18;98073.94;;;22.94;44.67
69187;BME280;56301;56.864;60.554;2023-07-29T11:22:41;98074.78;;;22.94;44.92
69187;BME280;56301;56.864;60.554;2023-07-29T11:25:04;98075.22;;;22.98;45.23
69187;BME280;56301;56.864;60.554;2023-07-29T11:27:26;98067.59;;;23.01;45.82
69187;BME280;56301;56.864;60.554;2023-07-29T11:29:49;98071.41;;;23.07;46.30
69187;BME280;56301;56.864;60.554;2023-07-29T11:32:11;98058.88;;;23.36;46.78
69187;BME280;56301;56.864;60.554;2023-07-29T11:34:34;98055.91;;;23.73;47.04
69187;BME280;56301;56.864;60.554;2023-07-29T11:36:57;98065.31;;;23.77;49.57
69187;BME280;56301;56.864;60.554;2023-07-29T11:39:19;98061.19;;;23.82;50.52
69187;BME280;56301;56.864;60.554;2023-07-29T11:41:42;98066.63;;;23.88;50.69
69187;BME280;56301;56.864;60.554;2023-07-29T11:44:04;98058.34;;;23.90;51.88
69187;BME280;56301;56.864;60.554;2023-07-29T11:46:31;98063.56;;;23.91;52.38
69187;BME280;56301;56.864;60.554;2023-07-29T11:48:54;98064.00;;;23.95;53.06
69187;BME280;56301;56.864;60.554;2023-07-29T11:51:16;98062.13;;;23.95;53.41
69187;BME280;56301;56.864;60.554;2023-07-29T11:53:39;98057.56;;;23.96;54.03
69187;BME280;56301;56.864;60.554;2023-07-29T11:56:01;98047.78;;;23.95;53.76
69187;BME280;56301;56.864;60.554;2023-07-29T11:58:25;98052.59;;;23.99;54.45
69187;BME280;56301;56.864;60.554;2023-07-29T12:00:48;98048.69;;;24.02;54.34
69187;BME280;56301;56.864;60.554;2023-07-29T12:03:11;98056.41;;;24.05;54.83
69187;BME280;56301;56.864;60.554;2023-07-29T12:05:33;98048.91;;;24.07;54.71
69187;BME280;56301;56.864;60.554;2023-07-29T12:07:56;98054.97;;;24.09;54.98
69187;BME280;56301;56.864;60.554;2023-07-29T12:10:18;98052.69;;;24.13;54.76
69187;BME280;56301;56.864;60.554;2023-07-29T12:12:47;98053.16;;;24.16;54.64
69187;BME280;56301;56.864;60.554;2023-07-29T12:15:10;98051.09;;;24.18;55.03
69187;BME280;56301;56.864;60.554;2023-07-29T12:17:37;98046.09;;;24.22;54.70
69187;BME280;56301;56.864;60.554;2023-07-29T12:19:59;98051.56;;;24.29;54.38
69187;BME280;56301;56.864;60.554;2023-07-29T12:22:22;98043.88;;;24.32;54.50
69187;BME280;56301;56.864;60.554;2023-07-29T12:24:46;98048.72;;;24.37;54.08
69187;BME280;56301;56.864;60.554;2023-07-29T12:27:12;98047.94;;;24.43;52.66
69187;BME280;56301;56.864;60.554;2023-07-29T12:29:39;98037.56;;;24.46;53.16
69187;BME280;56301;56.864;60.554;2023-07-29T12:32:02;98051.94;;;24.54;53.13
69187;BME280;56301;56.864;60.554;2023-07-29T12:34:25;98059.66;;;24.57;51.84
69187;BME280;56301;56.864;60.554;2023-07-29T12:36:49;98052.59;;;24.56;52.65